CheckWX is a tool to help pilots better visualize weather data.  It is not intended as a substitute for an official pre-flight weather briefing.

08:46:37 UTC

KTKV METAR
Tomahawk Regional Airport
Tomahawk, Wisconsin, USA
Current

32 mins ago

KTKV 180815Z AUTO 00000KT 10SM CLR M03/M03 A3000 RMK AO2 T10301035 PWINO
Observed
Oct-18 @ 08:15 UTC
Visibility
10 SM
Flight Rules
VFR
Cloud Levels
  • Clear skies
Temperature
-3°C / 27°F
Dewpoint
-4°C / 25°F
Humidity
93%
Altimeter
30" Hg
Pressure
1015.92 hPa
Previous

52 mins ago

KTKV 180755Z AUTO 00000KT 10SM CLR M02/M03 A3000 RMK AO2 T10221026 PWINO
Observed
Oct-18 @ 07:55 UTC
Visibility
10 SM
Flight Rules
VFR
Cloud Levels
  • Clear skies
Temperature
-2°C / 28°F
Dewpoint
-3°C / 27°F
Humidity
93%
Altimeter
30" Hg
Pressure
1015.92 hPa
Previous

1 hour ago

KTKV 180735Z AUTO 00000KT 10SM CLR M03/M03 A3000 RMK AO2 T10261030 PWINO
Observed
Oct-18 @ 07:35 UTC
Visibility
10 SM
Flight Rules
VFR
Cloud Levels
  • Clear skies
Temperature
-3°C / 27°F
Dewpoint
-3°C / 27°F
Humidity
100%
Altimeter
30" Hg
Pressure
1015.92 hPa